sensor_id;sensor_type;location;lat;lon;timestamp;P1;durP1;ratioP1;P2;durP2;ratioP2
65053;SDS011;51639;47.828;35.038;2023-07-13T00:09:11;22.45;;;11.18;;
65053;SDS011;51639;47.828;35.038;2023-07-13T00:24:15;16.48;;;7.85;;
65053;SDS011;51639;47.828;35.038;2023-07-13T00:39:25;7.90;;;4.68;;
65053;SDS011;51639;47.828;35.038;2023-07-13T00:54:29;7.38;;;4.03;;
65053;SDS011;51639;47.828;35.038;2023-07-13T01:09:34;8.20;;;5.28;;
65053;SDS011;51639;47.828;35.038;2023-07-13T01:24:37;8.15;;;3.95;;
65053;SDS011;51639;47.828;35.038;2023-07-13T01:39:41;7.90;;;3.90;;
65053;SDS011;51639;47.828;35.038;2023-07-13T01:54:42;11.73;;;5.82;;
65053;SDS011;51639;47.828;35.038;2023-07-13T02:09:44;10.95;;;5.45;;
65053;SDS011;51639;47.828;35.038;2023-07-13T02:24:46;8.90;;;3.90;;
65053;SDS011;51639;47.828;35.038;2023-07-13T02:39:49;8.65;;;5.47;;
65053;SDS011;51639;47.828;35.038;2023-07-13T02:54:51;9.18;;;4.53;;
65053;SDS011;51639;47.828;35.038;2023-07-13T03:09:56;12.75;;;5.25;;
65053;SDS011;51639;47.828;35.038;2023-07-13T03:24:58;14.10;;;7.95;;
65053;SDS011;51639;47.828;35.038;2023-07-13T03:40:00;14.75;;;6.43;;
65053;SDS011;51639;47.828;35.038;2023-07-13T03:55:02;13.18;;;5.70;;
65053;SDS011;51639;47.828;35.038;2023-07-13T04:10:05;8.82;;;5.30;;
65053;SDS011;51639;47.828;35.038;2023-07-13T04:25:07;18.20;;;8.75;;
65053;SDS011;51639;47.828;35.038;2023-07-13T04:40:09;48.88;;;20.77;;
65053;SDS011;51639;47.828;35.038;2023-07-13T04:55:13;28.15;;;11.90;;
65053;SDS011;51639;47.828;35.038;2023-07-13T05:10:16;16.53;;;7.17;;
65053;SDS011;51639;47.828;35.038;2023-07-13T05:25:18;6.53;;;3.83;;
65053;SDS011;51639;47.828;35.038;2023-07-13T05:40:20;7.87;;;3.57;;
65053;SDS011;51639;47.828;35.038;2023-07-13T05:55:22;4.90;;;3.40;;
65053;SDS011;51639;47.828;35.038;2023-07-13T06:10:25;5.63;;;3.00;;
65053;SDS011;51639;47.828;35.038;2023-07-13T06:40:30;3.77;;;2.70;;
65053;SDS011;51639;47.828;35.038;2023-07-13T06:55:32;3.33;;;2.20;;
65053;SDS011;51639;47.828;35.038;2023-07-13T07:10:34;4.70;;;2.60;;
65053;SDS011;51639;47.828;35.038;2023-07-13T07:25:37;4.53;;;2.80;;
65053;SDS011;51639;47.828;35.038;2023-07-13T07:40:43;5.03;;;2.72;;
65053;SDS011;51639;47.828;35.038;2023-07-13T07:55:48;3.75;;;2.30;;
65053;SDS011;51639;47.828;35.038;2023-07-13T08:10:53;9.45;;;6.20;;
65053;SDS011;51639;47.828;35.038;2023-07-13T08:26:00;6.00;;;2.63;;
65053;SDS011;51639;47.828;35.038;2023-07-13T08:41:09;3.75;;;3.10;;
65053;SDS011;51639;47.828;35.038;2023-07-13T08:56:17;2.47;;;2.00;;
65053;SDS011;51639;47.828;35.038;2023-07-13T09:26:36;2.85;;;1.90;;
65053;SDS011;51639;47.828;35.038;2023-07-13T09:57:14;4.18;;;2.40;;
65053;SDS011;51639;47.828;35.038;2023-07-13T10:12:18;3.83;;;2.40;;
65053;SDS011;51639;47.828;35.038;2023-07-13T10:27:22;11.68;;;6.28;;
65053;SDS011;51639;47.828;35.038;2023-07-13T10:42:35;2.00;;;1.52;;
65053;SDS011;51639;47.828;35.038;2023-07-13T10:57:41;3.60;;;2.38;;
65053;SDS011;51639;47.828;35.038;2023-07-13T11:43:18;4.35;;;2.20;;
65053;SDS011;51639;47.828;35.038;2023-07-13T11:58:21;3.35;;;2.10;;
65053;SDS011;51639;47.828;35.038;2023-07-13T12:13:27;3.45;;;2.20;;
65053;SDS011;51639;47.828;35.038;2023-07-13T12:28:34;3.97;;;2.00;;
65053;SDS011;51639;47.828;35.038;2023-07-13T12:43:38;5.60;;;2.13;;
65053;SDS011;51639;47.828;35.038;2023-07-13T12:58:40;7.18;;;2.03;;
65053;SDS011;51639;47.828;35.038;2023-07-13T13:13:45;6.25;;;2.10;;
65053;SDS011;51639;47.828;35.038;2023-07-13T13:28:50;5.45;;;2.20;;
65053;SDS011;51639;47.828;35.038;2023-07-13T13:43:53;3.13;;;1.98;;
65053;SDS011;51639;47.828;35.038;2023-07-13T13:58:55;3.67;;;2.15;;
65053;SDS011;51639;47.828;35.038;2023-07-13T14:13:57;5.38;;;2.40;;
65053;SDS011;51639;47.828;35.038;2023-07-13T14:29:01;5.18;;;2.53;;
65053;SDS011;51639;47.828;35.038;2023-07-13T14:44:13;3.75;;;2.40;;
65053;SDS011;51639;47.828;35.038;2023-07-13T14:59:17;5.05;;;2.60;;
65053;SDS011;51639;47.828;35.038;2023-07-13T15:14:22;4.03;;;2.35;;
65053;SDS011;51639;47.828;35.038;2023-07-13T15:29:28;5.13;;;2.90;;
65053;SDS011;51639;47.828;35.038;2023-07-13T15:44:31;4.15;;;2.72;;
65053;SDS011;51639;47.828;35.038;2023-07-13T15:59:34;5.65;;;2.65;;
65053;SDS011;51639;47.828;35.038;2023-07-13T16:14:36;6.03;;;3.88;;
65053;SDS011;51639;47.828;35.038;2023-07-13T16:29:38;7.43;;;2.78;;
65053;SDS011;51639;47.828;35.038;2023-07-13T16:44:40;7.70;;;2.40;;
65053;SDS011;51639;47.828;35.038;2023-07-13T16:59:42;4.85;;;2.97;;
65053;SDS011;51639;47.828;35.038;2023-07-13T17:14:47;9.90;;;4.38;;
65053;SDS011;51639;47.828;35.038;2023-07-13T17:29:49;8.50;;;3.53;;
65053;SDS011;51639;47.828;35.038;2023-07-13T17:44:52;11.63;;;4.28;;
65053;SDS011;51639;47.828;35.038;2023-07-13T17:59:58;8.15;;;3.78;;
65053;SDS011;51639;47.828;35.038;2023-07-13T18:15:00;14.60;;;4.72;;
65053;SDS011;51639;47.828;35.038;2023-07-13T18:30:03;6.30;;;3.67;;
65053;SDS011;51639;47.828;35.038;2023-07-13T18:45:12;8.82;;;4.43;;
65053;SDS011;51639;47.828;35.038;2023-07-13T19:00:16;10.70;;;3.88;;
65053;SDS011;51639;47.828;35.038;2023-07-13T19:15:20;4.63;;;3.30;;
65053;SDS011;51639;47.828;35.038;2023-07-13T19:30:32;9.10;;;3.30;;
65053;SDS011;51639;47.828;35.038;2023-07-13T19:45:34;8.90;;;3.60;;
65053;SDS011;51639;47.828;35.038;2023-07-13T20:00:36;5.20;;;3.07;;
65053;SDS011;51639;47.828;35.038;2023-07-13T20:15:40;4.72;;;2.90;;
65053;SDS011;51639;47.828;35.038;2023-07-13T20:30:46;4.75;;;2.13;;
65053;SDS011;51639;47.828;35.038;2023-07-13T20:45:50;4.75;;;2.65;;
65053;SDS011;51639;47.828;35.038;2023-07-13T21:00:58;7.13;;;2.50;;
65053;SDS011;51639;47.828;35.038;2023-07-13T21:46:25;7.15;;;2.67;;
65053;SDS011;51639;47.828;35.038;2023-07-13T22:01:30;6.53;;;2.47;;
65053;SDS011;51639;47.828;35.038;2023-07-13T22:16:38;4.22;;;2.38;;
65053;SDS011;51639;47.828;35.038;2023-07-13T22:31:41;8.25;;;2.70;;
65053;SDS011;51639;47.828;35.038;2023-07-13T22:46:44;2.83;;;1.97;;
65053;SDS011;51639;47.828;35.038;2023-07-13T23:01:46;6.57;;;2.80;;
65053;SDS011;51639;47.828;35.038;2023-07-13T23:16:48;5.20;;;2.43;;
65053;SDS011;51639;47.828;35.038;2023-07-13T23:31:51;5.87;;;3.00;;
65053;SDS011;51639;47.828;35.038;2023-07-13T23:46:53;3.47;;;2.93;;
